createdAt,value
2023-01-12T00:01:23.682Z,0.40
2023-01-12T00:03:51.534Z,0.45
2023-01-12T00:06:20.199Z,0.63
2023-01-12T00:08:47.359Z,0.55
2023-01-12T00:11:15.147Z,0.38
2023-01-12T00:13:42.245Z,0.63
2023-01-12T00:16:34.133Z,0.70
2023-01-12T00:19:01.728Z,0.70
2023-01-12T00:21:41.160Z,0.60
2023-01-12T00:24:08.702Z,0.80
2023-01-12T00:26:35.463Z,0.98
2023-01-12T00:29:02.392Z,0.80
2023-01-12T00:31:29.084Z,0.70
2023-01-12T00:33:55.954Z,1.33
2023-01-12T00:36:22.912Z,1.33
2023-01-12T00:38:51.078Z,1.00
2023-01-12T00:41:36.355Z,0.80
2023-01-12T00:44:21.979Z,1.17
2023-01-12T00:46:48.797Z,1.05
2023-01-12T00:49:15.678Z,1.05
2023-01-12T00:51:42.334Z,1.00
2023-01-12T00:54:10.494Z,1.40
2023-01-12T00:56:37.821Z,1.42
2023-01-12T00:59:05.468Z,0.90
2023-01-12T01:01:32.767Z,1.10
2023-01-12T01:03:59.865Z,1.30
2023-01-12T01:06:26.768Z,0.95
2023-01-12T01:08:53.561Z,1.52
2023-01-12T01:11:22.007Z,1.50
2023-01-12T01:13:49.200Z,1.13
2023-01-12T01:16:18.038Z,1.27
2023-01-12T01:18:45.072Z,1.48
2023-01-12T01:21:13.812Z,1.52
2023-01-12T01:23:42.156Z,1.40
2023-01-12T01:26:12.579Z,1.65
2023-01-12T01:28:41.780Z,1.38
2023-01-12T01:31:10.588Z,1.15
2023-01-12T01:33:38.049Z,1.65
2023-01-12T01:36:05.455Z,1.48
2023-01-12T01:38:33.099Z,1.98
2023-01-12T01:41:00.276Z,1.30
2023-01-12T01:43:28.515Z,1.00
2023-01-12T01:46:01.867Z,1.52
2023-01-12T01:48:32.428Z,1.33
2023-01-12T01:51:07.401Z,1.02
2023-01-12T01:53:36.601Z,1.30
2023-01-12T01:56:07.590Z,1.15
2023-01-12T01:58:39.086Z,1.30
2023-01-12T02:01:07.861Z,1.08
2023-01-12T02:03:36.894Z,1.33
2023-01-12T02:06:07.047Z,1.33
2023-01-12T02:08:42.454Z,1.45
2023-01-12T02:11:32.536Z,0.80
2023-01-12T02:14:17.724Z,1.15
2023-01-12T02:16:57.931Z,1.60
2023-01-12T02:19:42.607Z,1.83
2023-01-12T02:22:44.432Z,1.13
2023-01-12T02:25:31.284Z,1.00
2023-01-12T02:28:47.908Z,1.20
2023-01-12T02:31:32.190Z,0.88
2023-01-12T02:34:11.449Z,0.95
2023-01-12T02:36:51.605Z,1.77
2023-01-12T02:39:24.147Z,0.90
2023-01-12T02:42:18.159Z,0.70
2023-01-12T02:44:53.449Z,1.10
2023-01-12T02:47:27.673Z,0.80
2023-01-12T02:49:59.870Z,0.80
2023-01-12T02:52:29.342Z,0.93
2023-01-12T02:54:58.977Z,0.68
2023-01-12T02:57:28.201Z,0.85
2023-01-12T02:59:57.679Z,0.80
2023-01-12T03:02:27.795Z,0.60
2023-01-12T03:04:55.200Z,0.50
2023-01-12T03:07:33.204Z,0.60
2023-01-12T03:10:06.946Z,1.10
2023-01-12T03:12:37.053Z,0.80
2023-01-12T03:15:09.056Z,0.77
2023-01-12T03:17:41.555Z,0.93
2023-01-12T03:20:16.130Z,0.98
2023-01-12T03:22:45.136Z,1.02
2023-01-12T03:25:15.507Z,1.00
2023-01-12T03:27:48.510Z,1.48
2023-01-12T03:30:19.972Z,0.90
2023-01-12T03:32:48.776Z,0.88
2023-01-12T03:35:17.029Z,1.77
2023-01-12T03:37:49.235Z,1.00
2023-01-12T03:40:22.336Z,1.05
2023-01-12T03:42:53.335Z,1.00
2023-01-12T03:45:27.001Z,0.73
2023-01-12T03:48:01.827Z,1.20
2023-01-12T03:50:34.839Z,0.68
2023-01-12T03:53:03.261Z,0.88
2023-01-12T03:55:31.106Z,0.90
2023-01-12T03:57:58.694Z,0.80
2023-01-12T04:00:27.657Z,0.82
2023-01-12T04:03:04.418Z,0.68
2023-01-12T04:05:31.210Z,0.70
2023-01-12T04:07:58.132Z,0.55
2023-01-12T04:10:24.870Z,1.05
2023-01-12T04:12:51.530Z,1.05
2023-01-12T04:15:18.491Z,0.93
2023-01-12T04:17:45.316Z,1.00
2023-01-12T04:20:13.706Z,0.43
2023-01-12T04:22:43.744Z,0.90
2023-01-12T04:25:11.281Z,0.60
2023-01-12T04:27:42.288Z,1.00
2023-01-12T04:30:10.330Z,1.05
2023-01-12T04:32:37.926Z,0.55
2023-01-12T04:35:05.900Z,0.70
2023-01-12T04:37:34.311Z,0.80
2023-01-12T04:40:01.121Z,1.00
2023-01-12T04:42:46.883Z,0.82
2023-01-12T04:45:13.753Z,0.60
2023-01-12T04:47:40.558Z,0.60
2023-01-12T04:50:08.847Z,0.40
2023-01-12T04:52:37.655Z,0.70
2023-01-12T04:55:05.694Z,0.50
2023-01-12T04:57:32.870Z,0.73
2023-01-12T04:59:59.663Z,0.68
2023-01-12T05:02:27.603Z,0.82
2023-01-12T05:04:54.563Z,0.45
2023-01-12T05:07:21.591Z,0.90
2023-01-12T05:10:08.434Z,0.60
2023-01-12T05:12:35.164Z,0.70
2023-01-12T05:15:03.700Z,0.73
2023-01-12T05:17:31.752Z,1.38
2023-01-12T05:20:00.723Z,0.65
2023-01-12T05:22:28.152Z,0.70
2023-01-12T05:24:56.273Z,0.60
2023-01-12T05:27:23.017Z,1.00
2023-01-12T05:29:49.739Z,0.60
2023-01-12T05:32:16.612Z,0.70
2023-01-12T05:34:43.456Z,0.38
2023-01-12T05:37:10.252Z,0.60
2023-01-12T05:39:37.007Z,0.90
2023-01-12T05:42:23.968Z,0.38
2023-01-12T05:44:50.775Z,0.50
2023-01-12T05:47:17.939Z,0.50
2023-01-12T05:49:44.620Z,0.43
2023-01-12T05:52:11.379Z,0.38
2023-01-12T05:54:38.076Z,0.40
2023-01-12T05:57:06.259Z,0.70
2023-01-12T05:59:33.178Z,0.50
2023-01-12T06:02:00.015Z,0.50
2023-01-12T06:04:26.857Z,0.60
2023-01-12T06:06:53.860Z,0.60
2023-01-12T06:09:20.630Z,0.43
2023-01-12T06:12:05.789Z,0.60
2023-01-12T06:14:34.249Z,0.40
2023-01-12T06:17:01.048Z,0.50
2023-01-12T06:19:27.991Z,0.50
2023-01-12T06:21:55.259Z,0.50
2023-01-12T06:24:22.187Z,0.50
2023-01-12T06:26:48.945Z,0.50
2023-01-12T06:29:15.815Z,0.70
2023-01-12T06:31:44.062Z,0.68
2023-01-12T06:34:12.092Z,0.98
2023-01-12T06:36:39.619Z,0.60
2023-01-12T06:39:07.830Z,0.40
2023-01-12T06:41:53.341Z,0.30
2023-01-12T06:44:20.315Z,0.40
2023-01-12T06:46:48.664Z,0.45
2023-01-12T06:49:18.543Z,0.50
2023-01-12T06:51:48.049Z,0.65
2023-01-12T06:54:16.706Z,0.40
2023-01-12T06:56:45.475Z,0.50
2023-01-12T06:59:13.284Z,0.60
2023-01-12T07:01:40.794Z,0.38
2023-01-12T07:04:09.367Z,0.40
2023-01-12T07:06:37.069Z,0.43
2023-01-12T07:09:06.160Z,0.50
2023-01-12T07:11:33.291Z,0.47
2023-01-12T07:14:00.339Z,0.55
2023-01-12T07:16:27.230Z,0.40
2023-01-12T07:18:54.137Z,0.40
2023-01-12T07:21:22.667Z,0.50
2023-01-12T07:23:51.025Z,0.40
2023-01-12T07:26:17.881Z,0.68
2023-01-12T07:28:44.832Z,0.77
2023-01-12T07:31:12.364Z,0.63
2023-01-12T07:33:40.019Z,0.80
2023-01-12T07:36:07.299Z,0.70
2023-01-12T07:38:36.036Z,0.50
2023-01-12T07:41:03.969Z,0.50
2023-01-12T07:43:34.157Z,0.80
2023-01-12T07:46:01.301Z,0.80
2023-01-12T07:48:28.478Z,0.70
2023-01-12T07:50:58.831Z,0.63
2023-01-12T07:53:26.528Z,0.50
2023-01-12T07:55:55.473Z,0.60
2023-01-12T07:58:24.298Z,0.70
2023-01-12T08:00:51.167Z,0.55
2023-01-12T08:03:18.082Z,0.63
2023-01-12T08:05:45.705Z,0.45
2023-01-12T08:08:12.908Z,0.60
2023-01-12T08:10:41.076Z,0.70
2023-01-12T08:13:10.054Z,0.60
2023-01-12T08:15:42.201Z,0.80
2023-01-12T08:18:13.748Z,0.82
2023-01-12T08:20:41.051Z,0.65
2023-01-12T08:23:13.925Z,0.70
2023-01-12T08:25:45.404Z,0.90
2023-01-12T08:28:20.465Z,0.50
2023-01-12T08:30:48.812Z,0.70
2023-01-12T08:33:16.316Z,1.00
2023-01-12T08:35:44.560Z,0.80
2023-01-12T08:38:11.475Z,0.70
2023-01-12T08:40:57.294Z,0.80
2023-01-12T08:43:44.358Z,0.80
2023-01-12T08:46:11.241Z,0.60
2023-01-12T08:48:39.175Z,0.70
2023-01-12T08:51:08.110Z,0.65
2023-01-12T08:53:35.575Z,0.57
2023-01-12T08:56:02.506Z,0.50
2023-01-12T08:58:34.230Z,0.50
2023-01-12T09:01:09.135Z,0.70
2023-01-12T09:03:36.446Z,0.77
2023-01-12T09:06:10.555Z,0.63
2023-01-12T09:08:38.304Z,0.70
2023-01-12T09:11:06.417Z,0.70
2023-01-12T09:13:42.299Z,0.80
2023-01-12T09:16:13.362Z,0.70
2023-01-12T09:18:40.983Z,0.80
2023-01-12T09:21:10.809Z,0.68
2023-01-12T09:23:38.195Z,0.70
2023-01-12T09:26:08.391Z,0.60
2023-01-12T09:28:37.437Z,0.60
2023-01-12T09:31:06.820Z,0.90
2023-01-12T09:33:36.529Z,0.80
2023-01-12T09:36:07.216Z,0.63
2023-01-12T09:38:36.401Z,0.88
2023-01-12T09:41:10.532Z,0.70
2023-01-12T09:43:59.506Z,0.65
2023-01-12T09:46:49.529Z,1.15
2023-01-12T09:49:18.480Z,0.90
2023-01-12T09:51:54.417Z,0.70
2023-01-12T09:54:24.690Z,1.00
2023-01-12T09:56:59.444Z,0.70
2023-01-12T09:59:39.809Z,0.55
2023-01-12T10:02:11.967Z,0.60
2023-01-12T10:04:39.941Z,0.70
2023-01-12T10:07:12.055Z,0.60
2023-01-12T10:09:39.325Z,0.70
2023-01-12T10:12:18.044Z,0.70
2023-01-12T10:17:51.885Z,0.93
2023-01-12T10:20:36.084Z,0.95
2023-01-12T10:23:15.084Z,0.60
2023-01-12T10:25:45.327Z,0.43
2023-01-12T10:28:18.294Z,0.47
2023-01-12T10:30:47.396Z,0.40
2023-01-12T10:33:18.581Z,0.45
2023-01-12T10:35:54.629Z,0.20
2023-01-12T10:38:34.132Z,0.35
2023-01-12T10:41:27.021Z,0.50
2023-01-12T10:44:14.286Z,0.65
2023-01-12T10:46:41.222Z,0.38
2023-01-12T10:49:20.715Z,0.60
2023-01-12T10:51:56.881Z,0.10
2023-01-12T10:54:34.795Z,0.30
2023-01-12T10:57:19.318Z,0.57
2023-01-12T10:59:54.573Z,0.55
2023-01-12T11:02:25.321Z,0.40
2023-01-12T11:04:54.615Z,0.75
2023-01-12T11:07:26.852Z,0.63
2023-01-12T11:09:55.236Z,0.60
2023-01-12T11:12:31.601Z,0.47
2023-01-12T11:15:02.733Z,0.20
2023-01-12T11:17:49.994Z,0.60
2023-01-12T11:20:27.965Z,0.30
2023-01-12T11:22:58.957Z,0.40
2023-01-12T11:25:40.552Z,0.40
2023-01-12T11:28:14.653Z,0.40
2023-01-12T11:30:46.902Z,0.30
2023-01-12T11:33:21.340Z,0.47
2023-01-12T11:35:57.991Z,0.60
2023-01-12T11:38:31.593Z,0.57
2023-01-12T11:41:00.250Z,0.38
2023-01-12T11:43:50.817Z,0.63
2023-01-12T11:46:23.825Z,0.52
2023-01-12T11:49:00.140Z,0.50
2023-01-12T11:51:28.698Z,0.70
2023-01-12T11:54:00.352Z,0.57
2023-01-12T11:59:20.093Z,0.50
2023-01-12T12:02:04.042Z,0.80
2023-01-12T12:08:14.182Z,0.50
2023-01-12T12:13:32.663Z,0.90
2023-01-12T12:16:25.718Z,1.02
2023-01-12T12:19:36.801Z,0.30
2023-01-12T12:22:24.539Z,0.47
2023-01-12T12:25:16.394Z,1.00
2023-01-12T12:27:56.150Z,0.57
2023-01-12T12:31:04.975Z,0.45
2023-01-12T12:33:51.999Z,0.73
2023-01-12T12:36:29.507Z,0.30
2023-01-12T12:39:31.110Z,0.75
2023-01-12T12:42:34.322Z,0.30
2023-01-12T12:45:17.043Z,0.40
2023-01-12T12:47:59.885Z,0.70
2023-01-12T12:50:30.861Z,0.50
2023-01-12T12:53:13.155Z,0.40
2023-01-12T12:55:41.120Z,0.60
2023-01-12T12:58:32.632Z,1.48
2023-01-12T13:01:44.075Z,0.70
2023-01-12T13:04:34.960Z,0.50
2023-01-12T13:07:42.849Z,0.47
2023-01-12T13:10:28.906Z,0.50
2023-01-12T13:13:12.631Z,0.50
2023-01-12T13:17:03.324Z,0.63
2023-01-12T13:19:41.993Z,1.00
2023-01-12T13:22:57.221Z,1.23
2023-01-12T13:28:41.801Z,1.00
2023-01-12T13:31:37.202Z,0.68
2023-01-12T13:34:47.310Z,0.60
2023-01-12T13:37:32.127Z,0.60
2023-01-12T13:40:22.177Z,0.80
2023-01-12T13:43:09.685Z,0.80
2023-01-12T13:45:40.020Z,0.90
2023-01-12T13:48:09.766Z,0.47
2023-01-12T13:50:41.212Z,0.25
2023-01-12T13:53:28.488Z,0.40
2023-01-12T13:55:57.240Z,0.47
2023-01-12T13:58:24.404Z,0.40
2023-01-12T14:01:02.319Z,0.63
2023-01-12T14:03:46.140Z,0.30
2023-01-12T14:06:23.839Z,0.40
2023-01-12T14:08:59.927Z,0.40
2023-01-12T14:11:44.520Z,0.77
2023-01-12T14:15:08.594Z,0.40
2023-01-12T14:17:53.151Z,0.30
2023-01-12T14:20:23.476Z,0.70
2023-01-12T14:23:11.725Z,0.30
2023-01-12T14:25:45.894Z,0.80
2023-01-12T14:28:36.159Z,0.75
2023-01-12T14:31:50.232Z,0.50
2023-01-12T14:34:58.005Z,0.30
2023-01-12T14:37:37.604Z,0.38
2023-01-12T14:40:21.239Z,0.32
2023-01-12T14:43:18.849Z,0.50
2023-01-12T14:46:26.854Z,0.30
2023-01-12T14:48:57.567Z,0.20
2023-01-12T14:51:29.087Z,0.20
2023-01-12T14:54:16.414Z,0.20
2023-01-12T14:56:59.266Z,0.35
2023-01-12T14:59:31.294Z,0.30
2023-01-12T15:02:36.999Z,0.28
2023-01-12T15:05:09.983Z,0.20
2023-01-12T15:08:03.561Z,0.40
2023-01-12T15:10:37.336Z,0.40
2023-01-12T15:13:27.750Z,0.70
2023-01-12T15:16:15.057Z,0.30
2023-01-12T15:19:05.231Z,0.60
2023-01-12T15:21:53.098Z,0.85
2023-01-12T15:24:43.206Z,0.20
2023-01-12T15:27:16.707Z,0.60
2023-01-12T15:29:44.281Z,0.60
2023-01-12T15:32:19.269Z,0.80
2023-01-12T15:34:48.350Z,0.32
2023-01-12T15:37:16.574Z,0.88
2023-01-12T15:39:46.769Z,0.40
2023-01-12T15:42:22.572Z,0.28
2023-01-12T15:44:59.196Z,0.70
2023-01-12T15:47:26.560Z,0.55
2023-01-12T15:49:54.169Z,0.43
2023-01-12T15:52:23.133Z,0.40
2023-01-12T15:54:51.339Z,0.68
2023-01-12T15:57:19.623Z,0.70
2023-01-12T15:59:46.779Z,0.65
2023-01-12T16:02:39.053Z,0.60
2023-01-12T16:05:10.479Z,1.00
2023-01-12T16:10:07.959Z,0.40
2023-01-12T16:12:49.482Z,0.35
2023-01-12T16:15:18.573Z,0.30
2023-01-12T16:18:08.314Z,0.70
2023-01-12T16:20:36.386Z,0.40
2023-01-12T16:23:03.381Z,0.63
2023-01-12T16:25:31.218Z,0.70
2023-01-12T16:28:03.979Z,0.50
2023-01-12T16:30:32.363Z,0.40
2023-01-12T16:32:59.602Z,0.70
2023-01-12T16:35:27.166Z,0.40
2023-01-12T16:37:57.274Z,0.40
2023-01-12T16:40:26.308Z,1.05
2023-01-12T16:42:53.363Z,0.80
2023-01-12T16:45:21.611Z,0.63
2023-01-12T16:47:48.683Z,0.82
2023-01-12T16:50:15.865Z,0.90
2023-01-12T16:52:43.233Z,1.00
2023-01-12T16:55:10.255Z,1.00
2023-01-12T16:57:37.470Z,1.00
2023-01-12T17:00:05.217Z,1.23
2023-01-12T17:02:34.619Z,1.00
2023-01-12T17:05:02.150Z,1.10
2023-01-12T17:07:29.239Z,1.10
2023-01-12T17:09:57.892Z,1.05
2023-01-12T17:12:29.293Z,1.33
2023-01-12T17:17:29.797Z,1.00
2023-01-12T17:19:58.301Z,1.02
2023-01-12T17:22:31.535Z,1.30
2023-01-12T17:25:01.661Z,0.70
2023-01-12T17:27:37.985Z,1.35
2023-01-12T17:30:05.966Z,1.23
2023-01-12T17:32:34.555Z,1.10
2023-01-12T17:35:06.360Z,1.27
2023-01-12T17:37:33.276Z,1.40
2023-01-12T17:40:07.447Z,1.25
2023-01-12T17:42:58.791Z,1.05
2023-01-12T17:45:25.918Z,1.23
2023-01-12T17:47:52.904Z,1.27
2023-01-12T17:50:21.334Z,0.98
2023-01-12T17:52:50.578Z,1.00
2023-01-12T17:55:20.823Z,1.30
2023-01-12T17:57:47.607Z,0.85
2023-01-12T18:00:16.447Z,1.40
2023-01-12T18:02:43.970Z,0.80
2023-01-12T18:05:11.445Z,1.02
2023-01-12T18:07:44.990Z,0.90
2023-01-12T18:10:19.828Z,1.08
2023-01-12T18:12:47.003Z,1.48
2023-01-12T18:15:14.901Z,1.50
2023-01-12T18:17:42.363Z,1.65
2023-01-12T18:20:10.583Z,1.70
2023-01-12T18:22:37.436Z,1.63
2023-01-12T18:25:08.821Z,1.42
2023-01-12T18:27:40.195Z,1.67
2023-01-12T18:30:08.242Z,1.80
2023-01-12T18:32:35.317Z,1.40
2023-01-12T18:35:02.758Z,1.83
2023-01-12T18:37:33.816Z,1.55
2023-01-12T18:40:06.330Z,1.42
2023-01-12T18:42:56.479Z,1.17
2023-01-12T18:45:25.251Z,1.60
2023-01-12T18:48:11.381Z,2.15
2023-01-12T18:50:56.976Z,1.25
2023-01-12T18:53:31.540Z,1.38
2023-01-12T18:56:01.993Z,1.70
2023-01-12T18:58:33.117Z,1.52
2023-01-12T19:01:14.637Z,1.73
2023-01-12T19:03:43.100Z,1.45
2023-01-12T19:06:19.382Z,1.60
2023-01-12T19:09:05.743Z,1.60
2023-01-12T19:11:34.328Z,1.73
2023-01-12T19:14:22.207Z,1.35
2023-01-12T19:17:08.045Z,1.52
2023-01-12T19:19:57.094Z,1.75
2023-01-12T19:22:46.066Z,1.20
2023-01-12T19:25:32.557Z,1.70
2023-01-12T19:28:22.272Z,1.45
2023-01-12T19:30:50.868Z,1.67
2023-01-12T19:33:21.190Z,1.50
2023-01-12T19:36:08.393Z,2.35
2023-01-12T19:38:41.535Z,1.85
2023-01-12T19:41:14.439Z,2.03
2023-01-12T19:43:50.627Z,1.90
2023-01-12T19:46:19.090Z,2.45
2023-01-12T19:48:49.033Z,1.58
2023-01-12T19:51:17.117Z,2.10
2023-01-12T19:53:43.998Z,1.60
2023-01-12T19:56:12.257Z,1.83
2023-01-12T19:58:40.147Z,2.00
2023-01-12T20:01:07.602Z,2.00
2023-01-12T20:03:36.334Z,1.90
2023-01-12T20:06:09.280Z,2.03
2023-01-12T20:08:42.683Z,2.63
2023-01-12T20:11:10.763Z,3.13
2023-01-12T20:13:40.615Z,2.30
2023-01-12T20:16:09.682Z,2.42
2023-01-12T20:18:38.313Z,2.47
2023-01-12T20:21:08.786Z,1.88
2023-01-12T20:23:35.931Z,3.03
2023-01-12T20:26:06.281Z,2.22
2023-01-12T20:28:35.602Z,2.28
2023-01-12T20:31:07.982Z,3.10
2023-01-12T20:33:35.002Z,1.70
2023-01-12T20:36:03.594Z,1.55
2023-01-12T20:38:32.544Z,1.70
2023-01-12T20:41:00.628Z,2.10
2023-01-12T20:43:28.276Z,1.52
2023-01-12T20:45:58.078Z,2.17
2023-01-12T20:48:27.604Z,1.83
2023-01-12T20:50:55.627Z,1.42
2023-01-12T20:53:31.493Z,1.50
2023-01-12T20:55:58.419Z,1.50
2023-01-12T20:58:25.473Z,1.40
2023-01-12T21:00:53.719Z,1.30
2023-01-12T21:03:23.099Z,1.70
2023-01-12T21:05:52.398Z,1.40
2023-01-12T21:08:19.330Z,1.98
2023-01-12T21:10:51.656Z,2.10
2023-01-12T21:13:19.206Z,1.63
2023-01-12T21:15:47.475Z,1.33
2023-01-12T21:18:14.344Z,1.70
2023-01-12T21:20:42.830Z,1.38
2023-01-12T21:23:10.331Z,2.00
2023-01-12T21:25:41.717Z,1.15
2023-01-12T21:28:10.599Z,1.73
2023-01-12T21:30:40.848Z,1.23
2023-01-12T21:33:07.936Z,1.10
2023-01-12T21:35:34.984Z,1.30
2023-01-12T21:38:02.847Z,0.95
2023-01-12T21:40:34.012Z,1.10
2023-01-12T21:43:10.011Z,1.10
2023-01-12T21:45:40.753Z,1.42
2023-01-12T21:48:09.978Z,1.15
2023-01-12T21:50:37.924Z,1.27
2023-01-12T21:53:07.243Z,1.30
2023-01-12T21:55:34.694Z,1.35
2023-01-12T21:58:07.812Z,0.82
2023-01-12T22:00:39.256Z,0.63
2023-01-12T22:03:10.160Z,1.30
2023-01-12T22:05:37.103Z,0.90
2023-01-12T22:08:04.113Z,0.82
2023-01-12T22:10:31.615Z,0.65
2023-01-12T22:13:00.430Z,1.20
2023-01-12T22:15:32.938Z,0.80
2023-01-12T22:18:02.354Z,1.00
2023-01-12T22:20:29.506Z,1.10
2023-01-12T22:22:56.507Z,1.65
2023-01-12T22:25:23.545Z,1.35
2023-01-12T22:27:50.566Z,0.82
2023-01-12T22:30:20.672Z,1.35
2023-01-12T22:32:47.795Z,1.02
2023-01-12T22:35:16.240Z,0.95
2023-01-12T22:37:43.037Z,1.20
2023-01-12T22:40:12.124Z,1.30
2023-01-12T22:42:57.680Z,0.90
2023-01-12T22:45:24.569Z,1.13
2023-01-12T22:47:52.644Z,1.10
2023-01-12T22:50:21.252Z,0.90
2023-01-12T22:52:52.815Z,1.48
2023-01-12T22:57:46.736Z,1.52
2023-01-12T23:00:16.220Z,0.98
2023-01-12T23:03:02.884Z,1.17
2023-01-12T23:05:33.573Z,1.48
2023-01-12T23:08:01.057Z,1.25
2023-01-12T23:10:28.787Z,1.00
2023-01-12T23:13:18.960Z,0.90
2023-01-12T23:15:48.532Z,1.27
2023-01-12T23:18:17.606Z,1.20
2023-01-12T23:20:46.559Z,1.10
2023-01-12T23:23:13.690Z,1.20
2023-01-12T23:25:45.310Z,1.15
2023-01-12T23:30:39.919Z,0.77
2023-01-12T23:33:06.975Z,1.25
2023-01-12T23:35:36.858Z,1.45
2023-01-12T23:38:05.722Z,1.35
2023-01-12T23:40:32.813Z,1.10
2023-01-12T23:44:08.693Z,0.68
2023-01-12T23:46:37.778Z,1.00
2023-01-12T23:49:05.417Z,1.05
2023-01-12T23:51:33.282Z,1.42
2023-01-12T23:54:02.643Z,1.27
2023-01-12T23:56:31.673Z,1.13
2023-01-12T23:58:58.800Z,1.08
